Time;durP1;ratioP1;P1;durP2;ratioP2;P2;SDS_P1;SDS_P2;PMS_P1;PMS_P2;Temp;Humidity;BMP_temperature;BMP_pressure;BME280_temperature;BME280_humidity;BME280_pressure;Samples;Min_cycle;Max_cycle;Signal;HPM_P1;HPM_P2
2024/03/08 00:00:24;;;;;;;2.78;2.67;;;0.80;99.90;;;;;;4922804;29;20212;-83
2024/03/08 00:02:52;;;;;;;6.20;5.63;;;1.00;99.90;;;;;;4925511;29;20220;-83
2024/03/08 00:05:24;;;;;;;14.60;5.65;;;1.00;99.90;;;;;;4927695;29;20508;-82
2024/03/08 00:07:52;;;;;;;4.43;3.65;;;1.00;99.90;;;;;;4920451;29;20212;-81
2024/03/08 00:10:20;;;;;;;4.78;4.57;;;0.90;99.90;;;;;;4922942;29;20272;-82
2024/03/08 00:12:53;;;;;;;3.17;3.00;;;0.70;99.90;;;;;;4921311;29;20208;-81
2024/03/08 00:15:21;;;;;;;23.13;6.28;;;0.80;99.90;;;;;;4922235;29;20255;-81
2024/03/08 00:17:49;;;;;;;4.30;4.00;;;0.80;99.90;;;;;;4929786;29;20280;-81
2024/03/08 00:20:19;;;;;;;3.53;3.22;;;0.80;99.90;;;;;;4930711;29;20208;-80
2024/03/08 00:22:47;;;;;;;3.28;3.08;;;0.70;99.90;;;;;;4938279;29;20216;-81
2024/03/08 00:25:14;;;;;;;4.88;4.50;;;0.70;99.90;;;;;;4938852;29;20212;-82
2024/03/08 00:27:42;;;;;;;4.53;3.95;;;0.70;99.90;;;;;;4938706;29;20224;-83
2024/03/08 00:30:12;;;;;;;2.45;2.35;;;0.60;99.90;;;;;;4948398;29;20205;-83
2024/03/08 00:32:41;;;;;;;5.32;4.05;;;0.50;99.90;;;;;;4938892;29;20213;-86
2024/03/08 00:35:09;;;;;;;2.55;2.45;;;0.70;99.90;;;;;;4941843;29;20252;-83
2024/03/08 00:37:37;;;;;;;3.80;3.50;;;0.70;99.90;;;;;;4942202;29;20215;-82
2024/03/08 00:40:08;;;;;;;6.35;4.78;;;0.60;99.90;;;;;;4938110;29;20761;-84
2024/03/08 00:42:38;;;;;;;8.18;6.25;;;0.70;99.90;;;;;;4948059;29;20209;-84
2024/03/08 00:45:07;;;;;;;6.38;5.28;;;0.60;99.90;;;;;;4949399;29;20209;-87
2024/03/08 00:47:36;;;;;;;4.07;3.78;;;0.50;99.90;;;;;;4931015;29;20209;-84
2024/03/08 00:50:12;;;;;;;6.28;4.82;;;0.50;99.90;;;;;;4928249;29;20687;-84
2024/03/08 00:52:40;;;;;;;3.83;3.70;;;0.40;99.90;;;;;;4928866;29;20247;-83
2024/03/08 00:55:10;;;;;;;2.45;2.35;;;0.40;99.90;;;;;;4931356;29;20243;-83
2024/03/08 00:57:40;;;;;;;5.93;5.53;;;0.40;99.90;;;;;;4929860;29;20223;-83
2024/03/08 01:00:11;;;;;;;3.72;3.38;;;0.50;99.90;;;;;;4930144;29;20798;-83
2024/03/08 01:02:41;;;;;;;7.20;6.55;;;0.40;99.90;;;;;;4929841;29;20220;-84
2024/03/08 01:05:09;;;;;;;3.08;2.90;;;0.40;99.90;;;;;;4931668;29;20223;-83
2024/03/08 01:07:37;;;;;;;3.38;3.17;;;0.40;99.90;;;;;;4932314;29;20247;-81
2024/03/08 01:10:14;;;;;;;3.08;2.95;;;0.30;99.90;;;;;;4927567;29;20216;-84
2024/03/08 01:12:42;;;;;;;3.83;3.50;;;0.30;99.90;;;;;;4936688;29;20272;-83
2024/03/08 01:15:10;;;;;;;4.50;4.30;;;0.50;99.90;;;;;;4944325;29;20296;-83
2024/03/08 01:17:38;;;;;;;2.65;2.45;;;0.30;99.90;;;;;;4927913;29;20256;-84
2024/03/08 01:20:06;;;;;;;5.55;5.25;;;0.40;99.90;;;;;;4933565;29;20215;-83
2024/03/08 01:22:33;;;;;;;6.63;6.15;;;0.30;99.90;;;;;;4934877;29;20426;-83
2024/03/08 01:25:04;;;;;;;3.50;3.35;;;0.30;99.90;;;;;;4928195;29;20232;-84
2024/03/08 01:27:32;;;;;;;3.63;3.47;;;0.10;99.90;;;;;;4928652;29;20564;-80
2024/03/08 01:29:59;;;;;;;3.90;3.60;;;0.00;99.90;;;;;;4925706;29;20240;-83
2024/03/08 01:32:28;;;;;;;3.50;3.35;;;0.00;99.90;;;;;;4932838;29;20243;-80
2024/03/08 01:34:58;;;;;;;24.95;3.65;;;-0.10;99.90;;;;;;4926382;29;20220;-80
2024/03/08 01:37:26;;;;;;;4.32;4.13;;;-0.20;99.90;;;;;;4927858;29;20292;-80
2024/03/08 01:39:54;;;;;;;5.47;5.07;;;-0.10;99.90;;;;;;4943919;29;20254;-80
2024/03/08 01:42:28;;;;;;;3.67;3.47;;;-0.10;99.90;;;;;;4940001;29;20392;-80
2024/03/08 01:44:55;;;;;;;4.20;4.00;;;-0.20;99.90;;;;;;4941442;29;20201;-82
2024/03/08 01:47:25;;;;;;;2.72;2.63;;;-0.20;99.90;;;;;;4936822;28;20212;-83
2024/03/08 01:49:54;;;;;;;5.15;3.40;;;-0.20;99.90;;;;;;4938503;29;20223;-79
2024/03/08 01:52:22;;;;;;;3.28;3.10;;;0.00;99.90;;;;;;4923617;29;20213;-79
2024/03/08 01:54:49;;;;;;;8.85;5.47;;;-0.20;99.90;;;;;;4939824;29;20255;-79
2024/03/08 01:57:16;;;;;;;8.32;7.07;;;-0.30;99.90;;;;;;4931878;29;20240;-78
2024/03/08 01:59:44;;;;;;;2.85;2.70;;;-0.20;99.90;;;;;;4923390;29;20217;-79
2024/03/08 02:02:13;;;;;;;5.20;4.93;;;-0.20;99.90;;;;;;4922989;29;20248;-80
2024/03/08 02:04:40;;;;;;;9.98;5.25;;;-0.20;99.90;;;;;;4918503;29;20241;-80
2024/03/08 02:07:08;;;;;;;26.92;6.25;;;-0.20;99.90;;;;;;4920539;29;20584;-79
2024/03/08 02:09:37;;;;;;;6.95;3.88;;;-0.30;99.90;;;;;;4923520;29;20543;-82
2024/03/08 02:12:04;;;;;;;10.00;8.40;;;-0.30;99.90;;;;;;4923168;29;20303;-81
2024/03/08 02:14:34;;;;;;;3.65;3.45;;;-0.20;99.90;;;;;;4923141;29;20208;-81
2024/03/08 02:17:03;;;;;;;5.18;4.88;;;-0.30;99.90;;;;;;4922898;29;20256;-79
2024/03/08 02:19:30;;;;;;;6.40;5.75;;;-0.40;99.90;;;;;;4914999;29;20509;-82
2024/03/08 02:21:57;;;;;;;4.88;4.13;;;-0.40;99.90;;;;;;4918492;29;20231;-81
2024/03/08 02:24:25;;;;;;;3.95;3.75;;;-0.40;99.90;;;;;;4923761;29;20228;-80
2024/03/08 02:26:53;;;;;;;4.65;4.25;;;-0.40;99.90;;;;;;4923071;29;20243;-81
2024/03/08 02:29:21;;;;;;;4.05;3.85;;;-0.40;99.90;;;;;;4926930;29;20233;-81
2024/03/08 02:31:52;;;;;;;5.15;4.55;;;-0.10;99.90;;;;;;4927221;29;20204;-81
2024/03/08 02:34:20;;;;;;;6.50;6.00;;;-0.20;99.90;;;;;;4923035;29;20279;-82
2024/03/08 02:36:46;;;;;;;7.10;6.57;;;-0.30;99.90;;;;;;4923973;29;20259;-83
2024/03/08 02:39:14;;;;;;;7.28;6.57;;;-0.40;99.90;;;;;;4924913;29;20276;-82
2024/03/08 02:41:42;;;;;;;20.33;5.75;;;-0.20;99.90;;;;;;4936955;29;20205;-81
2024/03/08 02:44:12;;;;;;;2.97;2.70;;;-0.20;99.90;;;;;;4916984;29;20217;-82
2024/03/08 02:46:39;;;;;;;2.53;2.33;;;-0.40;99.90;;;;;;4920789;29;20279;-81
2024/03/08 02:49:07;;;;;;;6.15;5.70;;;-0.50;99.90;;;;;;4937933;29;20232;-79
2024/03/08 02:51:36;;;;;;;3.90;2.45;;;-0.40;99.90;;;;;;4923493;29;20543;-82
2024/03/08 02:54:04;;;;;;;4.40;3.97;;;-0.40;99.90;;;;;;4923536;29;20212;-83
2024/03/08 02:56:34;;;;;;;3.78;3.58;;;-0.50;99.90;;;;;;4923073;29;20240;-79
2024/03/08 02:59:02;;;;;;;3.45;3.25;;;-0.60;99.90;;;;;;4938952;29;20311;-80
2024/03/08 03:01:29;;;;;;;6.10;4.45;;;-0.60;99.90;;;;;;4931579;29;20393;-81
2024/03/08 03:03:58;;;;;;;22.17;4.35;;;-0.60;99.90;;;;;;4920125;29;20212;-79
2024/03/08 03:06:25;;;;;;;3.13;2.92;;;-0.70;99.90;;;;;;4917395;29;20248;-80
2024/03/08 03:08:53;;;;;;;3.67;3.47;;;-0.80;99.90;;;;;;4924197;29;20628;-78
2024/03/08 03:11:23;;;;;;;5.57;5.28;;;-0.70;99.90;;;;;;4935283;29;20528;-79
2024/03/08 03:13:50;;;;;;;1.02;1.02;;;-0.70;99.90;;;;;;4921993;29;20272;-79
2024/03/08 03:16:22;;;;;;;4.55;4.30;;;-0.80;99.90;;;;;;4921835;29;20244;-79
2024/03/08 03:18:49;;;;;;;3.60;3.50;;;-0.90;99.90;;;;;;4921691;29;20286;-79
2024/03/08 03:21:17;;;;;;;5.47;4.47;;;-0.90;99.90;;;;;;4924844;29;20213;-83
2024/03/08 03:23:44;;;;;;;4.88;4.15;;;-1.00;99.90;;;;;;4918613;29;20213;-81
2024/03/08 03:26:12;;;;;;;3.42;3.25;;;-0.90;99.90;;;;;;4920001;29;20441;-81
2024/03/08 03:28:39;;;;;;;6.60;3.63;;;-1.00;99.90;;;;;;4922492;29;20739;-79
2024/03/08 03:31:07;;;;;;;11.23;6.18;;;-1.00;99.90;;;;;;4922336;29;20259;-80
2024/03/08 03:33:36;;;;;;;7.80;6.95;;;-1.00;99.90;;;;;;4920903;29;20224;-82
2024/03/08 03:36:11;;;;;;;6.53;6.05;;;-1.10;99.90;;;;;;4921278;29;20236;-80
2024/03/08 03:38:38;;;;;;;6.30;5.85;;;-1.10;99.90;;;;;;4918313;29;20424;-80
2024/03/08 03:41:10;;;;;;;10.90;6.15;;;-1.10;99.90;;;;;;4917583;29;20213;-81
2024/03/08 03:43:38;;;;;;;7.90;3.67;;;-1.20;99.90;;;;;;4913823;29;20531;-79
2024/03/08 03:46:07;;;;;;;3.90;3.70;;;-1.20;99.90;;;;;;4926286;29;20279;-81
2024/03/08 03:48:34;;;;;;;5.15;3.80;;;-1.30;99.90;;;;;;4938617;28;20224;-81
2024/03/08 03:51:01;;;;;;;5.57;4.85;;;-1.10;99.90;;;;;;4942771;28;20208;-81
2024/03/08 03:53:28;;;;;;;7.47;6.78;;;-1.40;99.90;;;;;;4945448;28;20189;-80
2024/03/08 03:55:55;;;;;;;5.65;5.38;;;-1.30;99.90;;;;;;4939184;29;20240;-83
2024/03/08 03:58:23;;;;;;;7.95;6.47;;;-1.30;99.90;;;;;;4927442;29;20264;-82
2024/03/08 04:00:49;;;;;;;4.90;4.47;;;-1.30;99.90;;;;;;4936620;29;20200;-83
2024/03/08 04:03:16;;;;;;;7.20;6.25;;;-1.30;99.90;;;;;;4930200;29;20279;-82
2024/03/08 04:05:46;;;;;;;3.55;3.25;;;-1.40;99.90;;;;;;4929152;29;20576;-81
2024/03/08 04:08:13;;;;;;;19.80;9.32;;;-1.40;99.90;;;;;;4924587;29;20512;-84
2024/03/08 04:10:42;;;;;;;3.35;3.13;;;-1.30;99.90;;;;;;4921356;29;20760;-81
2024/03/08 04:13:09;;;;;;;6.95;6.53;;;-1.40;99.90;;;;;;4925260;29;20335;-82
2024/03/08 04:15:37;;;;;;;11.60;5.55;;;-1.40;99.90;;;;;;4928662;29;20247;-82
2024/03/08 04:18:05;;;;;;;9.65;5.43;;;-1.60;99.90;;;;;;4927118;29;20392;-81
2024/03/08 04:20:32;;;;;;;4.63;3.53;;;-1.50;99.90;;;;;;4927151;29;20220;-81
2024/03/08 04:23:07;;;;;;;5.25;4.80;;;-1.50;99.90;;;;;;4930141;29;20556;-83
2024/03/08 04:25:36;;;;;;;5.18;4.68;;;-1.60;99.90;;;;;;4916852;29;20219;-83
2024/03/08 04:28:11;;;;;;;3.80;3.60;;;-1.60;99.90;;;;;;4927374;29;20205;-84
2024/03/08 04:30:41;;;;;;;5.65;5.25;;;-1.60;99.90;;;;;;4926384;29;20208;-85
2024/03/08 04:33:08;;;;;;;6.50;5.97;;;-1.60;99.90;;;;;;4934487;29;20241;-84
2024/03/08 04:35:36;;;;;;;8.77;7.45;;;-1.60;99.90;;;;;;4927809;29;20276;-84
2024/03/08 04:38:05;;;;;;;5.80;4.45;;;-1.60;99.90;;;;;;4928879;29;20248;-84
2024/03/08 04:40:33;;;;;;;3.85;3.55;;;-1.70;99.90;;;;;;4933166;29;20204;-86
2024/03/08 04:43:00;;;;;;;3.65;3.45;;;-1.60;99.90;;;;;;4930480;29;20544;-86
2024/03/08 04:45:28;;;;;;;8.00;5.90;;;-1.70;99.90;;;;;;4927974;29;20472;-82
2024/03/08 04:47:57;;;;;;;4.43;4.07;;;-1.70;99.90;;;;;;4928904;29;20245;-84
2024/03/08 04:50:30;;;;;;;15.57;6.10;;;-1.70;99.90;;;;;;4942755;28;20207;-88
2024/03/08 04:52:57;;;;;;;4.60;4.20;;;-1.70;99.90;;;;;;4931549;28;20222;-84
2024/03/08 04:55:25;;;;;;;7.68;7.00;;;-1.70;99.90;;;;;;4933014;28;20593;-84
2024/03/08 04:57:52;;;;;;;5.30;4.80;;;-1.80;99.90;;;;;;4916146;29;20296;-82
2024/03/08 05:00:20;;;;;;;2.88;2.67;;;-1.80;99.90;;;;;;4918979;29;20277;-84
2024/03/08 05:02:53;;;;;;;1.77;1.67;;;-1.70;99.90;;;;;;4926272;29;20299;-85
2024/03/08 05:05:20;;;;;;;3.88;3.58;;;-1.70;99.90;;;;;;4926281;29;20196;-81
2024/03/08 05:07:49;;;;;;;4.00;3.75;;;-1.80;99.90;;;;;;4927159;29;20212;-83
2024/03/08 05:10:17;;;;;;;7.68;7.07;;;-1.90;99.90;;;;;;4939695;29;20209;-82
2024/03/08 05:12:45;;;;;;;8.27;5.70;;;-1.80;99.90;;;;;;4921542;29;20242;-84
2024/03/08 05:15:12;;;;;;;4.82;4.35;;;-1.80;99.90;;;;;;4931382;29;20207;-83
2024/03/08 05:17:40;;;;;;;8.13;6.03;;;-1.80;99.90;;;;;;4926623;29;20307;-85
2024/03/08 05:20:08;;;;;;;7.30;6.45;;;-1.80;99.90;;;;;;4942580;29;20332;-84
2024/03/08 05:22:35;;;;;;;2.15;2.05;;;-1.80;99.90;;;;;;4927930;29;20219;-83
2024/03/08 05:25:02;;;;;;;6.05;5.72;;;-1.80;99.90;;;;;;4930566;29;20243;-81
2024/03/08 05:27:30;;;;;;;3.60;3.40;;;-1.80;99.90;;;;;;4927773;29;20253;-82
2024/03/08 05:29:56;;;;;;;8.65;4.55;;;-1.90;99.90;;;;;;4928542;29;20204;-79
2024/03/08 05:32:24;;;;;;;5.63;5.22;;;-1.90;99.90;;;;;;4926777;29;20211;-81
2024/03/08 05:34:53;;;;;;;5.00;4.65;;;-1.90;99.90;;;;;;4925839;29;20641;-84
2024/03/08 05:37:21;;;;;;;3.63;3.42;;;-1.80;99.90;;;;;;4926956;29;20224;-81
2024/03/08 05:39:49;;;;;;;3.72;3.58;;;-1.80;99.90;;;;;;4930819;29;20271;-80
2024/03/08 05:42:16;;;;;;;4.85;4.55;;;-1.80;99.90;;;;;;4931321;29;20223;-78
2024/03/08 05:44:44;;;;;;;5.45;5.05;;;-1.70;99.90;;;;;;4925861;29;20209;-79
2024/03/08 05:47:11;;;;;;;11.80;7.97;;;-1.70;99.90;;;;;;4939293;29;20509;-79
2024/03/08 05:49:39;;;;;;;5.65;5.15;;;-1.70;99.90;;;;;;4922816;29;20271;-83
2024/03/08 05:52:06;;;;;;;15.20;11.93;;;-1.70;99.90;;;;;;4919546;29;20253;-82
2024/03/08 05:54:33;;;;;;;4.55;4.10;;;-1.60;99.90;;;;;;4917666;29;20209;-82
2024/03/08 05:57:01;;;;;;;3.42;3.25;;;-1.60;99.90;;;;;;4924692;29;20281;-80
2024/03/08 05:59:29;;;;;;;2.30;2.20;;;-1.60;99.90;;;;;;4925547;29;20200;-86
2024/03/08 06:01:56;;;;;;;7.07;6.47;;;-1.60;99.90;;;;;;4921416;29;20209;-83
2024/03/08 06:04:23;;;;;;;7.90;7.18;;;-1.60;99.90;;;;;;4932184;29;20241;-79
2024/03/08 06:06:55;;;;;;;5.95;5.65;;;-1.50;99.90;;;;;;4926939;29;20209;-84
2024/03/08 06:09:23;;;;;;;6.13;5.53;;;-1.50;99.90;;;;;;4932186;28;20215;-83
2024/03/08 06:11:54;;;;;;;6.07;5.68;;;-1.40;99.90;;;;;;4935490;29;20209;-84
2024/03/08 06:14:23;;;;;;;7.22;4.93;;;-1.30;99.90;;;;;;4921382;29;20212;-82
2024/03/08 06:16:50;;;;;;;4.00;3.63;;;-1.30;99.90;;;;;;4924939;29;20229;-83
2024/03/08 06:19:17;;;;;;;6.03;5.53;;;-1.30;99.90;;;;;;4933352;28;20233;-81
2024/03/08 06:21:45;;;;;;;8.27;7.43;;;-1.30;99.90;;;;;;4925642;29;20213;-83
2024/03/08 06:24:12;;;;;;;5.43;4.85;;;-1.20;99.90;;;;;;4928044;29;20217;-82
2024/03/08 06:26:39;;;;;;;5.05;3.70;;;-1.20;99.90;;;;;;4925213;29;20223;-80
2024/03/08 06:29:06;;;;;;;4.63;4.18;;;-0.60;99.90;;;;;;4925479;29;20212;-80
2024/03/08 06:31:33;;;;;;;5.72;5.10;;;-0.10;99.90;;;;;;4947632;29;20200;-85
2024/03/08 06:34:01;;;;;;;10.27;7.90;;;-0.10;99.90;;;;;;4926842;29;20288;-81
2024/03/08 06:36:31;;;;;;;10.98;7.97;;;0.30;99.90;;;;;;4923718;29;20236;-79
2024/03/08 06:38:58;;;;;;;4.60;3.22;;;0.90;99.90;;;;;;4917333;29;20259;-84
2024/03/08 06:41:25;;;;;;;7.45;6.80;;;0.80;99.90;;;;;;4919700;29;20217;-82
2024/03/08 06:43:57;;;;;;;6.80;6.28;;;0.70;99.90;;;;;;4915066;29;20417;-82
2024/03/08 06:46:24;;;;;;;4.38;4.07;;;1.00;99.90;;;;;;4922276;29;20382;-80
2024/03/08 06:48:51;;;;;;;3.72;3.53;;;1.40;99.90;;;;;;4923580;29;20209;-81
2024/03/08 06:51:20;;;;;;;4.10;3.58;;;1.90;99.90;;;;;;4914398;29;20217;-83
2024/03/08 06:53:49;;;;;;;3.63;3.45;;;1.50;99.90;;;;;;4922248;29;20553;-82
2024/03/08 06:56:16;;;;;;;4.57;4.30;;;0.80;99.90;;;;;;4919088;29;20213;-81
2024/03/08 06:58:43;;;;;;;4.43;4.13;;;0.50;99.90;;;;;;4914095;29;20705;-83
2024/03/08 07:01:13;;;;;;;2.58;2.38;;;0.50;99.90;;;;;;4923985;29;20208;-83
2024/03/08 07:03:44;;;;;;;5.10;4.68;;;0.30;99.90;;;;;;4924732;29;20209;-81
2024/03/08 07:06:11;;;;;;;2.97;2.88;;;0.60;99.90;;;;;;4942248;29;20212;-85
2024/03/08 07:08:39;;;;;;;8.52;7.72;;;0.70;99.90;;;;;;4927192;29;20572;-80
2024/03/08 07:11:06;;;;;;;3.92;3.72;;;2.10;99.90;;;;;;4928470;29;20213;-82
2024/03/08 07:13:34;;;;;;;3.60;3.30;;;3.00;99.90;;;;;;4929869;29;20212;-82
2024/03/08 07:16:01;;;;;;;6.72;6.10;;;1.90;99.90;;;;;;4928835;29;20288;-82
2024/03/08 07:18:29;;;;;;;7.82;5.22;;;1.70;99.90;;;;;;4931166;29;20291;-81
2024/03/08 07:20:57;;;;;;;4.65;4.40;;;1.40;99.90;;;;;;4925903;29;20215;-82
2024/03/08 07:26:16;;;;;;;4.18;3.90;;;1.10;99.90;;;;;;4926004;29;20212;-85
2024/03/08 07:28:45;;;;;;;4.03;3.63;;;1.30;99.90;;;;;;4929898;29;20199;-84
2024/03/08 07:33:51;;;;;;;3.05;2.83;;;1.50;99.90;;;;;;4940556;28;20213;-88
2024/03/08 07:36:18;;;;;;;7.20;3.75;;;2.80;99.90;;;;;;4936378;28;20408;-84
2024/03/08 07:38:51;;;;;;;2.67;2.58;;;3.40;99.90;;;;;;4933634;29;20247;-85
2024/03/08 07:41:23;;;;;;;7.43;6.82;;;3.90;99.90;;;;;;4934795;28;20255;-87
2024/03/08 07:43:53;;;;;;;4.50;4.15;;;4.80;99.90;;;;;;5115050;23;20233;-87
2024/03/08 07:46:29;;;;;;;2.50;2.40;;;5.70;99.90;;;;;;4917311;29;20209;-87
2024/03/08 07:49:10;;;;;;;1.20;1.20;;;6.50;99.90;;;;;;4911634;29;20212;-85
2024/03/08 07:51:39;;;;;;;4.00;3.80;;;6.90;99.90;;;;;;4911652;29;20280;-87
2024/03/08 07:54:09;;;;;;;2.72;2.55;;;6.20;99.90;;;;;;4910685;29;20210;-85
2024/03/08 07:56:39;;;;;;;3.47;3.38;;;6.90;99.90;;;;;;4907549;29;20704;-83
2024/03/08 07:59:06;;;;;;;4.07;3.75;;;6.40;99.90;;;;;;4902030;29;20293;-83
2024/03/08 08:01:33;;;;;;;3.05;2.17;;;6.70;99.90;;;;;;4911814;29;20303;-84
2024/03/08 08:04:03;;;;;;;3.42;3.33;;;7.80;99.90;;;;;;4909474;29;20254;-83
2024/03/08 08:06:33;;;;;;;3.92;3.72;;;8.50;99.90;;;;;;4908286;29;20205;-85
2024/03/08 08:09:00;;;;;;;3.42;3.33;;;8.80;95.70;;;;;;4900842;29;20217;-83
2024/03/08 08:11:28;;;;;;;4.10;3.90;;;7.60;97.20;;;;;;4893229;29;20446;-82
2024/03/08 08:13:55;;;;;;;4.13;3.92;;;7.50;99.90;;;;;;4897470;29;20213;-84
2024/03/08 08:16:25;;;;;;;4.68;4.40;;;7.80;99.90;;;;;;4905440;29;20205;-81
2024/03/08 08:18:52;;;;;;;2.17;2.08;;;8.50;97.80;;;;;;4918051;29;20225;-81
2024/03/08 08:21:22;;;;;;;2.67;2.58;;;7.20;99.90;;;;;;4909473;29;20386;-81
2024/03/08 08:23:48;;;;;;;2.70;2.55;;;7.50;99.90;;;;;;4905838;29;20251;-84
2024/03/08 08:26:16;;;;;;;2.88;2.45;;;6.70;99.90;;;;;;4898274;29;20756;-82
2024/03/08 08:28:45;;;;;;;3.47;3.33;;;7.00;99.90;;;;;;4908118;29;20340;-81
2024/03/08 08:31:13;;;;;;;2.60;2.33;;;8.20;99.90;;;;;;4902352;29;20490;-81
2024/03/08 08:33:40;;;;;;;2.03;1.98;;;6.70;99.90;;;;;;4897867;29;20272;-84
2024/03/08 08:36:07;;;;;;;2.28;2.17;;;6.80;99.90;;;;;;4894047;29;20216;-81
2024/03/08 08:38:34;;;;;;;1.67;1.58;;;6.80;99.90;;;;;;4914157;29;20224;-83
2024/03/08 08:41:02;;;;;;;3.08;2.88;;;6.70;99.90;;;;;;4915304;29;20220;-81
2024/03/08 08:43:29;;;;;;;3.63;3.47;;;7.30;99.90;;;;;;4945718;28;20193;-82
2024/03/08 08:45:57;;;;;;;5.90;5.55;;;7.00;99.90;;;;;;4926828;28;20366;-82
2024/03/08 08:48:24;;;;;;;4.55;4.22;;;6.20;99.90;;;;;;4923344;29;20493;-82
2024/03/08 08:50:52;;;;;;;4.40;4.00;;;5.70;99.90;;;;;;4909157;29;20284;-81
2024/03/08 08:53:19;;;;;;;2.42;2.33;;;5.50;99.90;;;;;;4907459;29;20216;-80
2024/03/08 08:55:46;;;;;;;4.45;4.15;;;4.80;99.90;;;;;;4908177;29;20447;-82
2024/03/08 08:58:13;;;;;;;3.67;3.42;;;4.80;99.90;;;;;;4903493;29;20233;-81
2024/03/08 09:00:40;;;;;;;4.20;4.00;;;4.70;99.90;;;;;;4903839;29;20466;-82
2024/03/08 09:03:07;;;;;;;2.10;2.00;;;5.30;99.90;;;;;;4897914;29;20530;-82
2024/03/08 09:05:35;;;;;;;3.05;2.95;;;5.30;99.90;;;;;;4895410;29;20752;-82
2024/03/08 09:08:05;;;;;;;1.67;1.67;;;5.60;99.90;;;;;;4912517;29;20228;-81
2024/03/08 09:10:33;;;;;;;2.55;2.45;;;5.40;99.90;;;;;;4906337;29;20625;-81
2024/03/08 09:13:04;;;;;;;1.73;1.73;;;5.90;99.90;;;;;;4899024;29;20206;-81
2024/03/08 09:15:31;;;;;;;5.72;5.35;;;6.00;99.90;;;;;;4906263;29;20215;-82
2024/03/08 09:17:59;;;;;;;2.35;2.25;;;5.70;99.90;;;;;;4908305;29;20233;-82
2024/03/08 09:20:26;;;;;;;1.08;1.08;;;5.30;99.90;;;;;;4906773;29;20201;-82
2024/03/08 09:22:54;;;;;;;2.42;2.33;;;5.30;99.90;;;;;;4896423;29;20285;-80
2024/03/08 09:25:23;;;;;;;2.03;1.92;;;6.20;99.90;;;;;;4904295;29;20205;-80
2024/03/08 09:27:50;;;;;;;1.65;1.65;;;6.80;99.90;;;;;;4896667;29;20443;-80
2024/03/08 09:30:17;;;;;;;2.58;2.47;;;6.80;99.90;;;;;;4921986;29;20208;-82
2024/03/08 09:32:45;;;;;;;2.28;2.10;;;7.00;99.90;;;;;;4898049;29;20221;-83
2024/03/08 09:35:12;;;;;;;2.17;2.08;;;6.40;99.90;;;;;;4905070;29;20209;-82
2024/03/08 09:37:39;;;;;;;3.00;2.85;;;5.80;99.90;;;;;;4900746;29;20248;-81
2024/03/08 09:40:09;;;;;;;4.93;4.63;;;5.50;99.90;;;;;;4920175;29;20269;-79
2024/03/08 09:42:37;;;;;;;4.60;4.35;;;5.10;99.90;;;;;;4901965;29;20228;-78
2024/03/08 09:45:12;;;;;;;2.58;2.45;;;4.60;99.90;;;;;;4899002;29;20246;-77
2024/03/08 09:47:41;;;;;;;0.85;0.85;;;4.80;99.90;;;;;;4905517;29;20246;-79
2024/03/08 09:50:12;;;;;;;1.63;1.63;;;4.70;99.90;;;;;;4907595;29;20273;-77
2024/03/08 09:52:40;;;;;;;1.63;1.58;;;5.00;99.90;;;;;;4924773;29;20218;-78
2024/03/08 09:55:09;;;;;;;2.42;2.30;;;5.00;99.90;;;;;;4922282;29;20216;-81
2024/03/08 09:57:39;;;;;;;1.27;1.27;;;5.30;99.90;;;;;;4914339;29;20406;-78
2024/03/08 10:00:40;;;;;;;1.92;1.85;;;5.00;99.90;;;;;;4904389;29;20216;-78
2024/03/08 10:03:01;;;;;;;2.72;2.63;;;5.20;99.90;;;;;;4903690;29;20213;-79
2024/03/08 10:05:30;;;;;;;3.10;2.90;;;5.70;99.90;;;;;;4904103;29;20268;-77
2024/03/08 10:07:58;;;;;;;3.38;3.25;;;5.60;99.90;;;;;;4900175;29;20476;-80
2024/03/08 10:10:26;;;;;;;4.13;3.92;;;5.30;99.90;;;;;;4903992;29;20233;-78
2024/03/08 10:12:53;;;;;;;5.40;5.13;;;5.10;99.90;;;;;;4906389;29;20276;-79
2024/03/08 10:15:20;;;;;;;1.77;1.70;;;5.00;99.90;;;;;;4896761;29;20284;-80
2024/03/08 10:17:47;;;;;;;2.45;2.35;;;5.10;99.90;;;;;;4898480;29;20537;-79
2024/03/08 10:20:18;;;;;;;5.80;5.40;;;5.30;99.90;;;;;;4904961;29;20209;-79
2024/03/08 10:22:45;;;;;;;3.38;3.13;;;5.60;99.90;;;;;;4905464;29;20229;-83
2024/03/08 10:25:33;;;;;;;1.65;1.65;;;5.30;99.90;;;;;;4905184;29;20254;-79
2024/03/08 10:28:00;;;;;;;2.30;2.25;;;5.10;99.90;;;;;;4907256;29;20231;-80
2024/03/08 10:30:27;;;;;;;2.20;2.10;;;4.80;99.90;;;;;;4922611;29;20228;-78
2024/03/08 10:32:54;;;;;;;4.80;4.50;;;5.30;99.90;;;;;;4916273;29;20529;-79
2024/03/08 10:35:22;;;;;;;2.10;1.88;;;5.60;99.90;;;;;;4915912;29;20217;-81
2024/03/08 10:37:58;;;;;;;2.70;2.60;;;5.50;99.90;;;;;;4909401;29;20251;-83
2024/03/08 10:40:27;;;;;;;4.15;3.47;;;5.10;99.90;;;;;;4915160;29;20221;-84
2024/03/08 10:42:59;;;;;;;10.90;2.35;;;4.90;99.90;;;;;;4912142;29;20280;-84
2024/03/08 10:45:42;;;;;;;1.20;1.20;;;4.90;99.90;;;;;;4922365;29;20527;-82
2024/03/08 10:48:16;;;;;;;2.20;2.10;;;5.10;99.90;;;;;;4916746;29;20205;-82
2024/03/08 10:50:46;;;;;;;2.03;1.92;;;5.30;99.90;;;;;;4910112;29;20212;-80
2024/03/08 10:53:14;;;;;;;2.60;1.88;;;5.40;99.90;;;;;;4915542;29;20256;-82
2024/03/08 10:55:43;;;;;;;4.22;3.83;;;5.10;99.90;;;;;;4910841;29;20233;-83
2024/03/08 10:58:10;;;;;;;4.38;4.07;;;5.20;99.90;;;;;;4904774;29;20693;-83
2024/03/08 11:00:38;;;;;;;1.40;1.35;;;5.40;99.90;;;;;;4905895;29;20240;-84
2024/03/08 11:03:05;;;;;;;1.55;1.55;;;5.70;99.90;;;;;;4907282;29;20225;-84
2024/03/08 11:05:39;;;;;;;3.90;3.70;;;5.80;99.90;;;;;;4921186;29;20585;-81
2024/03/08 11:08:20;;;;;;;1.00;1.00;;;5.60;99.90;;;;;;4911168;29;20204;-80
2024/03/08 11:10:55;;;;;;;4.40;4.20;;;5.20;99.90;;;;;;4912269;29;20217;-83
2024/03/08 11:13:45;;;;;;;3.17;2.45;;;5.50;99.90;;;;;;4912665;29;20512;-83
2024/03/08 11:16:32;;;;;;;3.60;3.45;;;5.70;99.90;;;;;;4912929;29;20216;-83
2024/03/08 11:19:10;;;;;;;5.00;4.53;;;5.70;99.90;;;;;;4904511;29;20237;-84
2024/03/08 11:21:39;;;;;;;1.92;1.83;;;5.50;99.90;;;;;;4914301;29;20276;-83
2024/03/08 11:24:13;;;;;;;1.88;1.80;;;5.50;99.90;;;;;;4908592;29;20288;-81
2024/03/08 11:26:40;;;;;;;0.80;0.80;;;5.50;99.90;;;;;;4928765;29;20214;-82
2024/03/08 11:29:43;;;;;;;5.65;5.18;;;5.60;99.90;;;;;;4919695;29;20209;-81
2024/03/08 11:32:15;;;;;;;2.65;2.45;;;5.70;98.50;;;;;;4907685;29;20378;-83
2024/03/08 11:34:47;;;;;;;1.98;1.88;;;5.50;99.70;;;;;;4918177;29;20454;-83
2024/03/08 11:37:17;;;;;;;2.25;2.13;;;5.80;96.70;;;;;;4918827;29;20435;-84
2024/03/08 11:39:49;;;;;;;0.95;0.95;;;6.00;97.20;;;;;;4937609;29;20225;-83
2024/03/08 11:42:19;;;;;;;1.08;1.08;;;5.80;96.20;;;;;;4911212;29;20213;-84
2024/03/08 11:44:47;;;;;;;9.20;2.55;;;5.90;96.90;;;;;;4910178;29;20212;-84
2024/03/08 11:47:16;;;;;;;0.60;0.60;;;6.40;97.90;;;;;;4907528;29;20233;-85
2024/03/08 11:49:47;;;;;;;1.17;1.17;;;6.20;98.00;;;;;;4914265;29;20288;-85
2024/03/08 11:52:17;;;;;;;1.77;1.67;;;6.30;98.30;;;;;;4914112;29;20586;-83
2024/03/08 11:54:54;;;;;;;2.58;2.45;;;6.30;95.90;;;;;;4905244;29;20401;-84
2024/03/08 11:57:24;;;;;;;1.33;1.33;;;6.20;95.10;;;;;;4902003;29;20201;-84
2024/03/08 11:59:53;;;;;;;1.20;1.20;;;6.30;93.70;;;;;;4904365;29;20562;-85
2024/03/08 12:02:25;;;;;;;1.10;1.10;;;6.30;93.20;;;;;;4909924;29;20405;-84
2024/03/08 12:05:03;;;;;;;1.00;1.00;;;6.20;93.00;;;;;;4913174;29;20240;-84
2024/03/08 12:07:33;;;;;;;2.65;2.55;;;6.50;93.00;;;;;;4907918;29;20205;-85
2024/03/08 12:10:18;;;;;;;1.23;1.23;;;6.30;93.80;;;;;;4924987;29;20198;-83
2024/03/08 12:12:49;;;;;;;1.67;1.60;;;6.50;93.60;;;;;;4904827;29;20225;-83
2024/03/08 12:15:21;;;;;;;1.35;1.35;;;6.50;93.30;;;;;;4922471;29;20239;-84
2024/03/08 12:17:52;;;;;;;0.93;0.93;;;6.50;93.60;;;;;;4917006;29;20215;-82
2024/03/08 12:20:31;;;;;;;1.17;1.17;;;6.40;92.70;;;;;;4917588;29;20215;-83
2024/03/08 12:23:02;;;;;;;1.42;1.42;;;6.30;92.60;;;;;;4920876;29;20786;-84
2024/03/08 12:25:35;;;;;;;1.42;1.42;;;6.50;93.30;;;;;;4920387;29;20210;-86
2024/03/08 12:28:13;;;;;;;16.20;4.28;;;6.50;94.30;;;;;;4911818;29;20196;-85
2024/03/08 12:30:48;;;;;;;0.85;0.85;;;6.60;94.30;;;;;;4886644;29;20223;-83
2024/03/08 12:33:17;;;;;;;2.05;1.95;;;6.50;93.60;;;;;;4914098;29;20437;-84
2024/03/08 12:35:55;;;;;;;1.65;1.55;;;6.40;93.00;;;;;;4916381;29;20224;-85
2024/03/08 12:38:31;;;;;;;2.75;2.55;;;6.30;93.50;;;;;;4908783;29;20233;-83
2024/03/08 12:40:59;;;;;;;3.00;2.80;;;6.30;94.10;;;;;;4912120;29;20244;-83
2024/03/08 12:43:33;;;;;;;2.03;1.92;;;6.50;93.70;;;;;;4911988;29;20386;-84
2024/03/08 12:46:01;;;;;;;1.75;1.65;;;6.30;94.30;;;;;;4926985;29;20225;-85
2024/03/08 12:48:40;;;;;;;6.18;4.85;;;6.50;95.20;;;;;;4917439;29;20201;-84
2024/03/08 12:51:08;;;;;;;2.17;2.10;;;6.80;94.30;;;;;;4929700;29;20204;-82
2024/03/08 12:53:40;;;;;;;6.88;2.08;;;6.50;93.70;;;;;;4936142;29;20217;-85
2024/03/08 12:56:39;;;;;;;3.22;3.03;;;6.60;94.30;;;;;;4920849;29;20253;-84
2024/03/08 12:59:10;;;;;;;2.47;2.38;;;6.50;93.40;;;;;;4932585;29;20220;-84
2024/03/08 13:01:41;;;;;;;2.38;2.28;;;6.40;93.20;;;;;;4930261;28;20300;-87
2024/03/08 13:04:11;;;;;;;2.50;1.58;;;6.50;93.00;;;;;;4884551;29;20212;-85
2024/03/08 13:06:46;;;;;;;1.02;1.02;;;6.40;93.00;;;;;;4915592;29;20209;-84
2024/03/08 13:09:19;;;;;;;3.08;2.85;;;6.60;93.10;;;;;;4921018;29;20212;-86